Roslyn Estates, New York
Current Conditions -  °F | °C
As of 1:01 PM on Wednesday 26 Nov 2014 (Local Time) from KLGA Reporting Station
Light Snow Light Snow  
Wind Chill: 26°   Ceiling: 800
Heat Index: 34°   Visibility: 1.5mi
Dew Point: 32°   Wind: 10mph
Humidity: 93%   Direction: 10°N
Pressure: 30"   Gusts: 16mph
Location:  40.8044°N, 73.641°W
Report Text: KLGA 261801Z 01009G14KT 1 1/2SM -SNPL BR SCT005 BKN008 OVC013 01/00 A3000 RMK AO2 PLB00 PRESFR P0003
Loading
Personal Weather Stations






























Interactive Weather Map New forecast layout! Learn more

10-Day Weather Forecast

Advertisements
Track Severe Weather on mobile